Time;durP1;ratioP1;P1;durP2;ratioP2;P2;SDS_P1;SDS_P2;PMS_P1;PMS_P2;Temp;Humidity;BMP_temperature;BMP_pressure;BME280_temperature;BME280_humidity;BME280_pressure;Samples;Min_cycle;Max_cycle;Signal;HPM_P1;HPM_P2
2022/03/07 00:00:49;;;;;;;11.13;3.78;;;;;;;6.52;31.48;101965.13;5053446;28;20135;-72
2022/03/07 00:03:15;;;;;;;9.25;4.05;;;;;;;6.43;31.57;101966.59;5053592;28;20067;-72
2022/03/07 00:05:42;;;;;;;10.55;4.20;;;;;;;6.60;31.47;101954.81;5053267;28;20049;-73
2022/03/07 00:08:09;;;;;;;11.20;4.28;;;;;;;6.53;31.67;101964.19;5054006;28;20044;-72
2022/03/07 00:10:55;;;;;;;8.15;3.88;;;;;;;6.51;31.98;101966.09;5053886;28;20063;-72
2022/03/07 00:13:22;;;;;;;9.88;4.22;;;;;;;6.35;32.18;101962.72;5051972;28;20483;-72
2022/03/07 00:15:49;;;;;;;8.98;4.38;;;;;;;6.47;32.30;101964.59;5053300;28;20075;-74
2022/03/07 00:18:16;;;;;;;9.48;3.95;;;;;;;6.39;32.48;101956.22;5053590;28;20045;-72
2022/03/07 00:20:42;;;;;;;8.98;4.25;;;;;;;6.40;32.53;101964.13;5054155;28;20080;-72
2022/03/07 00:23:11;;;;;;;15.75;4.47;;;;;;;6.18;32.90;101964.69;5052414;28;20037;-73
2022/03/07 00:25:38;;;;;;;7.65;4.20;;;;;;;6.34;32.80;101961.03;5053785;28;20056;-72
2022/03/07 00:28:05;;;;;;;15.25;4.28;;;;;;;6.28;32.98;101956.09;5053094;28;20072;-73
2022/03/07 00:30:32;;;;;;;8.73;4.93;;;;;;;6.30;32.75;101957.72;5053917;28;20119;-73
2022/03/07 00:32:59;;;;;;;11.52;4.63;;;;;;;6.30;32.85;101952.38;5053125;28;20148;-73
2022/03/07 00:35:26;;;;;;;7.72;4.18;;;;;;;6.32;32.88;101946.94;5053092;28;20041;-72
2022/03/07 00:37:53;;;;;;;13.50;5.13;;;;;;;6.30;33.11;101948.88;5052784;28;20053;-73
2022/03/07 00:40:19;;;;;;;8.55;4.05;;;;;;;6.34;33.02;101947.69;5053502;28;20128;-73
2022/03/07 00:42:46;;;;;;;10.90;4.35;;;;;;;6.39;33.23;101950.91;5053152;28;20079;-73
2022/03/07 00:45:12;;;;;;;8.68;4.55;;;;;;;6.41;32.96;101960.50;5053327;28;20049;-73
2022/03/07 00:47:39;;;;;;;10.90;4.57;;;;;;;6.28;33.52;101951.63;5054096;28;20075;-73
2022/03/07 00:50:06;;;;;;;12.50;5.10;;;;;;;6.43;33.09;101955.94;5053761;28;20052;-73
2022/03/07 00:52:32;;;;;;;14.32;5.10;;;;;;;6.35;33.33;101955.59;5053370;28;20091;-73
2022/03/07 00:54:59;;;;;;;12.02;4.68;;;;;;;6.37;33.42;101958.16;5053121;28;20124;-73
2022/03/07 00:57:25;;;;;;;11.38;4.53;;;;;;;6.28;33.52;101953.44;5053173;28;20132;-73
2022/03/07 00:59:52;;;;;;;12.30;5.22;;;;;;;6.20;33.52;101960.09;5051335;28;20567;-73
2022/03/07 01:02:18;;;;;;;7.90;5.03;;;;;;;6.27;33.83;101952.59;5052311;28;20083;-73
2022/03/07 01:04:45;;;;;;;9.40;5.07;;;;;;;6.20;33.59;101957.44;5052417;28;20472;-72
2022/03/07 01:07:14;;;;;;;13.90;4.95;;;;;;;6.13;33.63;101964.13;5043544;28;20476;-73
2022/03/07 01:09:40;;;;;;;12.52;4.82;;;;;;;6.16;34.00;101955.94;5032168;28;20092;-73
2022/03/07 01:12:07;;;;;;;12.02;4.85;;;;;;;6.05;33.91;101957.59;5039134;28;20567;-72
2022/03/07 01:14:34;;;;;;;11.23;5.03;;;;;;;6.09;33.92;101959.97;5033338;28;20069;-72
2022/03/07 01:17:01;;;;;;;11.18;4.40;;;;;;;5.96;34.00;101957.22;5032718;28;20400;-72
2022/03/07 01:19:27;;;;;;;9.02;4.43;;;;;;;5.93;34.30;101956.56;5031860;28;20128;-73
2022/03/07 01:21:53;;;;;;;11.85;5.43;;;;;;;5.85;34.44;101956.22;5032896;28;20144;-73
2022/03/07 01:24:20;;;;;;;7.78;4.57;;;;;;;5.86;34.49;101952.59;5033278;28;20132;-74
2022/03/07 01:26:46;;;;;;;12.57;5.15;;;;;;;5.85;34.57;101957.09;5032789;28;20073;-73
2022/03/07 01:29:13;;;;;;;11.65;4.70;;;;;;;5.65;34.94;101953.03;5034752;28;20465;-73
2022/03/07 01:31:39;;;;;;;15.02;5.07;;;;;;;5.87;34.60;101949.84;5052501;28;20131;-72
2022/03/07 01:34:06;;;;;;;10.55;5.15;;;;;;;5.81;34.72;101960.91;5052140;28;20652;-72
2022/03/07 01:36:32;;;;;;;8.48;4.40;;;;;;;5.72;34.78;101956.16;5051690;28;20405;-72
2022/03/07 01:38:59;;;;;;;12.07;5.28;;;;;;;5.63;34.75;101962.94;5051726;28;20083;-73
2022/03/07 01:41:25;;;;;;;9.93;5.47;;;;;;;5.59;34.97;101953.41;5052829;28;20045;-73
2022/03/07 01:43:52;;;;;;;11.55;5.25;;;;;;;5.65;35.14;101953.03;5051037;28;20167;-72
2022/03/07 01:46:18;;;;;;;13.32;5.43;;;;;;;5.57;35.38;101941.19;5050714;28;20045;-72
2022/03/07 01:48:45;;;;;;;9.77;5.15;;;;;;;5.41;35.86;101935.97;5050568;28;20057;-72
2022/03/07 01:51:13;;;;;;;17.27;5.60;;;;;;;5.54;35.41;101934.22;5052385;28;20065;-73
2022/03/07 01:53:39;;;;;;;9.65;4.82;;;;;;;5.47;35.44;101941.75;5050674;28;20076;-72
2022/03/07 01:56:07;;;;;;;10.80;5.28;;;;;;;5.63;35.59;101931.00;5051454;28;20069;-72
2022/03/07 01:58:35;;;;;;;14.38;5.20;;;;;;;5.59;35.36;101937.44;5051090;28;20227;-72
2022/03/07 02:01:02;;;;;;;10.88;5.25;;;;;;;5.58;35.30;101937.56;5050730;28;20135;-73
2022/03/07 02:03:30;;;;;;;9.70;5.00;;;;;;;5.61;35.46;101937.34;5050533;28;20049;-73
2022/03/07 02:09:43;;;;;;;11.25;5.32;;;;;;;5.58;35.41;101938.41;5051781;28;20068;-73
2022/03/07 02:12:10;;;;;;;12.18;5.50;;;;;;;5.38;35.94;101930.81;5053046;28;20044;-73
2022/03/07 02:14:37;;;;;;;15.82;5.95;;;;;;;5.38;35.68;101938.81;5050734;28;20132;-72
2022/03/07 02:17:03;;;;;;;11.48;5.85;;;;;;;5.35;35.85;101929.22;5050986;28;20045;-73
2022/03/07 02:19:30;;;;;;;10.88;5.70;;;;;;;5.29;36.21;101927.81;5051112;28;20123;-72
2022/03/07 02:22:00;;;;;;;11.18;5.57;;;;;;;5.16;36.31;101921.53;5050941;28;20095;-72
2022/03/07 02:24:28;;;;;;;13.27;5.70;;;;;;;5.18;36.42;101924.97;5051873;28;20068;-73
2022/03/07 02:27:00;;;;;;;14.43;6.55;;;;;;;5.32;36.01;101931.19;5051752;28;20507;-73
2022/03/07 02:29:27;;;;;;;13.27;6.28;;;;;;;5.32;36.00;101923.22;5051790;28;20044;-73
2022/03/07 02:31:54;;;;;;;15.65;6.18;;;;;;;5.11;36.51;101923.63;5051714;28;20132;-73
2022/03/07 02:34:21;;;;;;;13.93;6.35;;;;;;;5.17;36.51;101917.06;5051960;28;20136;-72
2022/03/07 02:36:47;;;;;;;10.18;5.45;;;;;;;5.11;36.54;101907.69;5051809;28;20060;-73
2022/03/07 02:39:15;;;;;;;10.98;5.65;;;;;;;5.25;36.20;101915.66;5052361;28;20124;-72
2022/03/07 02:41:43;;;;;;;11.30;5.50;;;;;;;5.22;36.30;101912.31;5051642;28;20128;-73
2022/03/07 02:44:09;;;;;;;11.85;5.88;;;;;;;5.26;36.23;101912.03;5051610;28;20068;-72
2022/03/07 02:46:36;;;;;;;11.43;5.13;;;;;;;5.27;36.50;101919.03;5050598;28;20458;-74
2022/03/07 02:49:04;;;;;;;12.30;5.85;;;;;;;5.14;36.37;101917.25;5051068;28;20087;-72
2022/03/07 02:51:31;;;;;;;15.55;6.30;;;;;;;5.15;36.51;101919.84;5050964;28;20140;-72
2022/03/07 02:53:58;;;;;;;11.00;6.00;;;;;;;5.07;36.72;101916.78;5051419;28;20131;-73
2022/03/07 02:56:25;;;;;;;12.40;5.80;;;;;;;5.02;36.79;101913.56;5051066;28;20128;-73
2022/03/07 02:58:51;;;;;;;12.13;5.75;;;;;;;4.98;36.61;101912.91;5051563;28;20437;-72
2022/03/07 03:01:18;;;;;;;13.88;5.97;;;;;;;5.07;36.58;101903.47;5049620;28;20132;-72
2022/03/07 03:03:47;;;;;;;9.55;5.47;;;;;;;5.00;36.42;101921.63;5049557;28;20053;-73
2022/03/07 03:06:13;;;;;;;11.63;5.97;;;;;;;4.97;36.50;101912.97;5050406;28;20053;-73
2022/03/07 03:08:40;;;;;;;11.50;5.82;;;;;;;4.93;36.84;101924.75;5046836;28;20420;-72
2022/03/07 03:11:06;;;;;;;12.32;6.00;;;;;;;4.99;36.59;101919.91;5050857;28;20061;-72
2022/03/07 03:13:33;;;;;;;14.50;6.43;;;;;;;4.89;36.92;101913.44;5050499;28;21586;-72
2022/03/07 03:15:59;;;;;;;12.20;6.28;;;;;;;4.85;36.84;101914.59;5050017;28;20133;-72
2022/03/07 03:18:26;;;;;;;17.05;6.32;;;;;;;4.88;37.02;101913.56;5051156;28;20064;-72
2022/03/07 03:20:53;;;;;;;9.95;6.03;;;;;;;4.81;37.09;101905.94;5050663;28;20083;-73
2022/03/07 03:23:22;;;;;;;15.30;6.63;;;;;;;4.88;37.10;101905.59;5050776;28;20099;-73
2022/03/07 03:25:48;;;;;;;13.63;6.15;;;;;;;4.74;37.46;101901.09;5050577;28;20080;-73
2022/03/07 03:28:15;;;;;;;12.95;6.45;;;;;;;4.78;37.20;101905.28;5051615;28;20064;-72
2022/03/07 03:30:42;;;;;;;12.55;6.30;;;;;;;4.61;37.69;101911.63;5050818;28;20139;-72
2022/03/07 03:33:08;;;;;;;12.35;5.90;;;;;;;4.70;37.82;101903.09;5050102;28;20056;-73
2022/03/07 03:35:38;;;;;;;11.68;6.35;;;;;;;4.77;37.18;101899.13;5050718;28;20113;-73
2022/03/07 03:38:06;;;;;;;9.45;6.10;;;;;;;4.76;37.58;101905.41;5050011;28;20055;-73
2022/03/07 03:40:33;;;;;;;11.27;5.97;;;;;;;4.64;37.88;101898.16;5047970;28;20080;-73
2022/03/07 03:42:59;;;;;;;12.40;5.80;;;;;;;4.66;37.50;101898.91;5050768;28;20123;-73
2022/03/07 03:45:26;;;;;;;9.77;5.60;;;;;;;4.65;37.62;101902.50;5050405;28;20090;-74
2022/03/07 03:47:52;;;;;;;11.05;6.43;;;;;;;4.57;37.85;101904.78;5050189;28;20114;-74
2022/03/07 03:50:19;;;;;;;11.15;6.30;;;;;;;4.60;37.97;101903.75;5052160;28;20113;-73
2022/03/07 03:52:46;;;;;;;11.10;5.63;;;;;;;4.63;37.35;101906.22;5050437;28;20459;-73
2022/03/07 03:55:15;;;;;;;11.48;6.63;;;;;;;4.65;37.64;101910.47;5050385;28;20079;-73
2022/03/07 03:57:42;;;;;;;14.15;6.40;;;;;;;4.70;37.88;101908.41;5050123;28;20041;-73
2022/03/07 04:00:12;;;;;;;11.05;6.63;;;;;;;4.63;37.64;101914.19;5049540;28;20468;-73
2022/03/07 04:02:42;;;;;;;13.18;5.90;;;;;;;4.69;37.82;101913.81;5049216;28;20132;-72
2022/03/07 04:05:13;;;;;;;13.48;6.28;;;;;;;4.58;37.94;101907.34;5050836;28;20048;-72
2022/03/07 04:07:40;;;;;;;9.52;6.18;;;;;;;4.60;37.85;101903.75;5049496;28;20504;-73
2022/03/07 04:10:08;;;;;;;14.73;6.55;;;;;;;4.69;37.86;101901.38;5049678;28;20068;-73
2022/03/07 04:12:35;;;;;;;11.65;6.22;;;;;;;4.63;37.91;101899.09;5050278;28;20091;-73
2022/03/07 04:15:03;;;;;;;15.73;6.90;;;;;;;4.66;37.95;101898.91;5051128;28;20045;-73
2022/03/07 04:17:29;;;;;;;13.45;6.97;;;;;;;4.69;37.94;101905.84;5052803;28;20048;-73
2022/03/07 04:19:56;;;;;;;11.00;6.65;;;;;;;4.69;37.79;101905.84;5053738;28;20094;-73
2022/03/07 04:22:24;;;;;;;16.17;7.15;;;;;;;4.68;37.86;101912.97;5053084;28;20129;-73
2022/03/07 04:24:51;;;;;;;9.98;6.25;;;;;;;4.71;37.66;101909.25;5053341;28;20055;-73
2022/03/07 04:27:18;;;;;;;11.95;6.70;;;;;;;4.71;37.52;101910.13;5053509;28;20068;-73
2022/03/07 04:29:44;;;;;;;16.63;6.60;;;;;;;4.66;37.57;101906.91;5053336;28;20140;-74
2022/03/07 04:32:11;;;;;;;13.13;6.68;;;;;;;4.62;37.89;101923.94;5053105;28;20132;-74
2022/03/07 04:34:37;;;;;;;14.20;6.70;;;;;;;4.63;38.03;101923.03;5053906;28;20073;-75
2022/03/07 04:37:04;;;;;;;16.83;7.47;;;;;;;4.67;37.99;101919.22;5054143;28;20072;-73
2022/03/07 04:39:30;;;;;;;12.95;6.70;;;;;;;4.68;37.94;101920.94;5054556;28;20496;-73
2022/03/07 04:41:57;;;;;;;15.57;7.10;;;;;;;4.68;38.10;101926.25;5053981;28;20040;-73
2022/03/07 04:44:23;;;;;;;15.10;6.95;;;;;;;4.74;37.92;101925.03;5052779;28;20131;-74
2022/03/07 04:46:49;;;;;;;17.52;7.20;;;;;;;4.72;38.36;101921.59;5053725;28;20061;-74
2022/03/07 04:49:16;;;;;;;14.93;7.45;;;;;;;4.61;38.58;101924.91;5052562;28;20072;-74
2022/03/07 04:51:45;;;;;;;15.48;8.07;;;;;;;4.63;38.61;101925.69;5051250;28;20049;-74
2022/03/07 04:54:16;;;;;;;17.33;8.38;;;;;;;4.61;38.87;101929.38;5052549;28;20044;-74
2022/03/07 04:56:43;;;;;;;20.25;8.65;;;;;;;4.63;39.21;101935.47;5053238;28;20052;-74
2022/03/07 04:59:12;;;;;;;20.80;8.75;;;;;;;4.67;38.90;101935.19;5053162;28;20065;-73
2022/03/07 05:01:39;;;;;;;16.98;7.43;;;;;;;4.73;38.48;101929.50;5052768;28;20404;-74
2022/03/07 05:04:05;;;;;;;14.32;7.90;;;;;;;4.47;39.56;101928.38;5053148;28;20045;-74
2022/03/07 05:06:32;;;;;;;19.65;8.63;;;;;;;4.69;38.96;101927.09;5051389;28;20135;-74
2022/03/07 05:08:58;;;;;;;16.02;8.00;;;;;;;4.78;38.77;101937.19;5053306;28;20064;-74
2022/03/07 05:11:25;;;;;;;16.13;8.27;;;;;;;4.63;39.17;101935.47;5053163;28;20200;-73
2022/03/07 05:13:52;;;;;;;16.20;8.25;;;;;;;4.64;39.24;101930.03;5053366;28;20064;-73
2022/03/07 05:16:18;;;;;;;16.35;8.25;;;;;;;4.53;39.51;101932.50;5052269;28;20484;-73
2022/03/07 05:18:45;;;;;;;14.43;8.75;;;;;;;4.47;39.53;101939.00;5051974;28;20136;-73
2022/03/07 05:21:11;;;;;;;14.73;8.32;;;;;;;4.47;39.62;101938.16;5051649;28;20482;-73
2022/03/07 05:23:38;;;;;;;20.02;9.43;;;;;;;4.36;40.06;101940.56;5052087;28;20049;-73
2022/03/07 05:26:05;;;;;;;20.13;9.60;;;;;;;4.65;39.37;101938.88;5052496;28;20128;-72
2022/03/07 05:28:31;;;;;;;16.90;8.88;;;;;;;4.58;39.76;101941.88;5050991;28;20133;-73
2022/03/07 05:30:58;;;;;;;20.63;9.27;;;;;;;4.61;39.67;101946.16;5052796;28;20472;-73
2022/03/07 05:33:24;;;;;;;20.73;10.60;;;;;;;4.63;39.68;101938.97;5052686;28;20051;-73
2022/03/07 05:35:51;;;;;;;21.20;10.38;;;;;;;4.58;39.43;101951.66;5052182;28;20095;-73
2022/03/07 05:38:18;;;;;;;24.90;11.10;;;;;;;4.75;39.34;101948.00;5051970;28;20449;-72
2022/03/07 05:40:44;;;;;;;18.90;10.60;;;;;;;4.74;39.65;101943.66;5051591;28;20103;-72
2022/03/07 05:43:12;;;;;;;20.17;11.00;;;;;;;4.74;39.88;101951.63;5051706;28;20083;-72
2022/03/07 05:45:39;;;;;;;22.48;10.95;;;;;;;4.72;39.95;101949.03;5050948;28;20069;-73
2022/03/07 05:48:05;;;;;;;21.63;10.90;;;;;;;4.77;39.67;101941.66;5052214;28;20066;-72
2022/03/07 05:50:32;;;;;;;28.77;12.52;;;;;;;4.78;40.05;101945.16;5052425;28;20072;-73
2022/03/07 05:52:58;;;;;;;21.55;11.85;;;;;;;4.81;40.21;101948.50;5051767;28;20068;-73
2022/03/07 05:55:25;;;;;;;24.02;11.68;;;;;;;4.86;40.50;101947.34;5052579;28;20132;-74
2022/03/07 05:57:55;;;;;;;30.58;13.23;;;;;;;4.88;40.37;101943.66;5050115;28;20080;-74
2022/03/07 06:00:21;;;;;;;25.27;12.40;;;;;;;4.91;40.53;101937.31;5051701;28;20489;-72
2022/03/07 06:02:48;;;;;;;22.08;12.45;;;;;;;4.94;40.91;101937.13;5051120;28;20140;-73
2022/03/07 06:05:14;;;;;;;36.00;13.27;;;;;;;4.96;40.80;101937.88;5052129;28;20431;-73
2022/03/07 06:07:41;;;;;;;23.52;13.45;;;;;;;4.85;41.36;101932.34;5051863;28;20072;-72
2022/03/07 06:10:08;;;;;;;28.52;13.55;;;;;;;4.82;41.20;101939.56;5051371;28;20132;-72
2022/03/07 06:12:34;;;;;;;33.50;14.20;;;;;;;4.93;41.40;101938.06;5052016;28;20087;-73
2022/03/07 06:15:03;;;;;;;25.73;14.05;;;;;;;4.70;42.07;101936.81;5052866;28;20519;-73
2022/03/07 06:17:31;;;;;;;37.72;16.95;;;;;;;4.99;41.26;101943.84;5049753;28;20049;-73
2022/03/07 06:19:58;;;;;;;34.42;14.35;;;;;;;5.08;41.18;101945.09;5052417;28;20060;-74
2022/03/07 06:22:24;;;;;;;27.88;12.55;;;;;;;5.13;41.37;101937.69;5051088;28;20064;-74
2022/03/07 06:24:51;;;;;;;28.10;13.07;;;;;;;5.17;41.24;101939.19;5051477;28;20132;-74
2022/03/07 06:27:17;;;;;;;27.67;12.60;;;;;;;5.21;40.74;101935.41;5051355;28;20045;-74
2022/03/07 06:29:44;;;;;;;20.45;11.82;;;;;;;5.21;40.99;101934.53;5051415;28;20049;-73
2022/03/07 06:32:10;;;;;;;19.92;12.00;;;;;;;5.11;41.10;101950.25;5051923;28;20135;-74
2022/03/07 06:34:38;;;;;;;24.85;11.40;;;;;;;5.12;40.68;101945.78;5051850;28;20072;-74
2022/03/07 06:37:05;;;;;;;22.38;11.82;;;;;;;5.08;41.03;101957.56;5051246;28;20522;-74
2022/03/07 06:39:31;;;;;;;16.65;10.35;;;;;;;5.20;41.26;101965.63;5051869;28;20067;-74
2022/03/07 06:41:58;;;;;;;25.95;11.52;;;;;;;5.07;42.00;101963.81;5050986;28;20061;-74
2022/03/07 06:44:24;;;;;;;28.08;11.98;;;;;;;5.34;41.22;101969.22;5050600;28;20047;-75
2022/03/07 06:49:07;;;;;;;19.70;11.15;;;;;;;4.46;42.53;101965.69;5099786;27;20340;-76
2022/03/07 06:51:34;;;;;;;22.35;10.95;;;;;;;4.56;42.09;101967.72;5071683;28;20041;-76
2022/03/07 06:54:00;;;;;;;25.95;11.05;;;;;;;4.48;42.29;101964.63;5072929;28;20048;-77
2022/03/07 06:56:27;;;;;;;21.33;10.68;;;;;;;4.51;42.46;101971.56;5073836;28;20074;-76
2022/03/07 06:58:53;;;;;;;25.35;11.48;;;;;;;4.67;41.96;101966.22;5073696;28;20489;-76
2022/03/07 07:01:20;;;;;;;24.08;11.13;;;;;;;4.63;42.27;101962.03;5072164;28;20090;-74
2022/03/07 07:03:47;;;;;;;24.02;11.98;;;;;;;4.72;42.07;101956.16;5074053;28;20060;-73
2022/03/07 07:06:13;;;;;;;22.77;11.70;;;;;;;4.42;42.91;101966.81;5078117;28;20040;-73
2022/03/07 07:08:40;;;;;;;23.48;10.98;;;;;;;4.74;42.14;101955.13;5076971;28;20056;-73
2022/03/07 07:11:06;;;;;;;28.42;11.38;;;;;;;4.82;42.20;101954.66;5069759;28;20128;-73
2022/03/07 07:13:38;;;;;;;23.10;11.65;;;;;;;5.01;42.05;101955.25;5061419;28;20052;-75
2022/03/07 07:16:05;;;;;;;23.83;11.18;;;;;;;5.24;41.81;101955.63;5061732;28;20075;-73
2022/03/07 07:18:31;;;;;;;26.75;12.20;;;;;;;5.32;41.62;101955.16;5073418;28;20044;-73
2022/03/07 07:20:58;;;;;;;20.02;11.68;;;;;;;5.85;40.99;101956.22;5057673;28;20063;-73
2022/03/07 07:23:24;;;;;;;21.70;11.02;;;;;;;6.38;39.41;101965.19;5053058;28;20045;-73
2022/03/07 07:25:51;;;;;;;31.48;10.57;;;;;;;7.09;38.69;101962.09;5042081;28;20124;-73
2022/03/07 07:28:17;;;;;;;22.17;11.02;;;;;;;7.57;37.08;101966.72;5066528;28;20064;-73
2022/03/07 07:30:46;;;;;;;17.38;10.13;;;;;;;8.25;36.35;101952.81;5065650;28;20537;-74
2022/03/07 07:33:12;;;;;;;20.30;9.13;;;;;;;8.79;34.99;101957.63;5052235;28;20045;-74
2022/03/07 07:35:39;;;;;;;15.32;9.50;;;;;;;9.20;33.98;101960.72;5062180;28;20059;-75
2022/03/07 07:38:07;;;;;;;21.50;9.45;;;;;;;9.48;33.64;101956.75;5069820;28;20480;-75
2022/03/07 07:40:33;;;;;;;15.80;9.43;;;;;;;10.08;32.55;101962.59;5071083;28;20068;-75
2022/03/07 07:42:59;;;;;;;20.08;9.45;;;;;;;10.77;31.69;101964.88;5069795;28;20128;-75
2022/03/07 07:45:30;;;;;;;20.02;8.93;;;;;;;9.99;32.47;101962.38;5073878;28;20476;-75
2022/03/07 07:47:58;;;;;;;16.65;9.48;;;;;;;10.96;30.79;101962.28;5079522;28;20112;-76
2022/03/07 07:50:26;;;;;;;17.00;8.82;;;;;;;11.59;30.16;101968.41;5080162;28;20118;-75
2022/03/07 07:52:52;;;;;;;15.82;8.57;;;;;;;11.06;30.62;101967.72;5089224;28;20104;-75
2022/03/07 07:55:19;;;;;;;26.33;8.90;;;;;;;11.19;30.66;101969.22;5072334;28;20076;-75
2022/03/07 07:57:45;;;;;;;18.30;8.82;;;;;;;10.72;31.17;101959.88;5068245;28;20057;-75
2022/03/07 08:00:15;;;;;;;18.88;7.88;;;;;;;11.57;30.14;101964.16;5057698;28;20079;-75
2022/03/07 08:02:44;;;;;;;15.82;7.80;;;;;;;11.59;30.13;101967.56;5035964;28;20068;-75
2022/03/07 08:05:11;;;;;;;16.77;8.55;;;;;;;12.25;28.85;101967.84;5055531;28;20112;-75
2022/03/07 08:07:39;;;;;;;20.52;9.25;;;;;;;11.93;29.53;101971.66;5076263;28;20097;-75
2022/03/07 08:10:06;;;;;;;16.33;7.95;;;;;;;12.74;28.88;101970.53;5077255;28;20052;-75
2022/03/07 08:12:32;;;;;;;21.67;8.95;;;;;;;12.85;28.45;101956.91;5071719;28;20048;-75
2022/03/07 08:14:59;;;;;;;14.48;8.57;;;;;;;13.30;27.55;101959.75;5057001;28;20068;-75
2022/03/07 08:17:25;;;;;;;17.63;8.18;;;;;;;13.44;27.37;101973.75;5035578;28;20088;-75
2022/03/07 08:19:52;;;;;;;18.25;7.97;;;;;;;14.41;26.09;101974.00;5044010;28;20041;-74
2022/03/07 08:22:18;;;;;;;14.93;8.05;;;;;;;13.30;27.03;101970.53;5075905;28;20055;-74
2022/03/07 08:24:45;;;;;;;17.73;8.52;;;;;;;14.59;26.01;101967.75;5075574;28;20128;-74
2022/03/07 08:27:11;;;;;;;18.98;8.25;;;;;;;14.41;26.02;101967.75;5075700;28;20052;-73
2022/03/07 08:29:38;;;;;;;12.13;8.02;;;;;;;13.86;26.78;101965.19;5058821;28;20128;-74
2022/03/07 08:32:05;;;;;;;17.67;7.65;;;;;;;13.41;27.47;101961.41;5055783;28;20124;-75
2022/03/07 08:34:31;;;;;;;18.83;8.75;;;;;;;13.28;27.83;101961.78;5040666;28;20105;-75
2022/03/07 08:36:58;;;;;;;17.10;8.57;;;;;;;13.90;26.77;101958.47;5047551;28;20123;-74
2022/03/07 08:39:25;;;;;;;19.67;8.23;;;;;;;13.22;27.65;101953.41;5026740;28;20556;-75
2022/03/07 08:41:52;;;;;;;15.10;7.45;;;;;;;13.32;27.72;101963.16;5045717;28;20072;-74
2022/03/07 08:44:18;;;;;;;13.60;8.00;;;;;;;14.30;26.17;101958.91;5045408;28;20068;-74
2022/03/07 08:46:45;;;;;;;16.92;7.63;;;;;;;14.57;25.75;101949.00;5055979;28;20044;-75
2022/03/07 08:49:11;;;;;;;21.42;10.18;;;;;;;14.54;25.83;101952.88;5055491;28;20110;-75
2022/03/07 08:51:39;;;;;;;20.10;8.98;;;;;;;14.06;26.45;101950.56;5075214;28;20492;-76
2022/03/07 08:54:05;;;;;;;19.30;9.77;;;;;;;14.82;25.23;101947.38;5076722;28;20127;-74
2022/03/07 08:56:32;;;;;;;23.55;9.30;;;;;;;14.71;25.76;101944.91;5075875;28;20123;-74
2022/03/07 08:58:58;;;;;;;17.23;8.68;;;;;;;14.34;26.32;101939.69;5075840;28;20083;-76
2022/03/07 09:01:25;;;;;;;13.85;7.80;;;;;;;15.51;24.12;101942.84;5076831;28;20614;-75
2022/03/07 09:03:52;;;;;;;12.90;6.65;;;;;;;15.77;23.96;101944.63;5057984;28;20045;-75
2022/03/07 09:06:18;;;;;;;17.85;7.15;;;;;;;15.03;24.63;101941.59;5076262;28;20127;-75
2022/03/07 09:08:45;;;;;;;20.73;8.52;;;;;;;15.65;24.11;101939.53;5077128;28;20174;-74
2022/03/07 09:11:11;;;;;;;14.70;7.00;;;;;;;14.32;25.40;101955.19;5075310;28;20400;-75
2022/03/07 09:13:38;;;;;;;15.90;7.10;;;;;;;15.20;24.40;101951.47;5071918;28;20485;-75
2022/03/07 09:16:04;;;;;;;12.48;7.15;;;;;;;15.44;23.93;101949.91;5058285;28;20036;-76
2022/03/07 09:18:31;;;;;;;13.52;6.85;;;;;;;15.87;23.19;101956.16;5069410;28;20048;-75
2022/03/07 09:20:58;;;;;;;17.02;6.55;;;;;;;14.57;24.24;101945.47;5071846;28;20135;-74
2022/03/07 09:23:27;;;;;;;17.30;6.68;;;;;;;15.74;22.68;101944.97;5071667;28;20090;-74
2022/03/07 09:25:53;;;;;;;11.15;6.05;;;;;;;15.82;23.15;101947.72;5061925;28;20049;-74
2022/03/07 09:28:19;;;;;;;14.88;7.05;;;;;;;16.18;22.78;101943.69;5061969;28;20057;-72
2022/03/07 09:30:46;;;;;;;11.68;6.45;;;;;;;16.02;22.57;101943.69;5074669;28;20048;-71
2022/03/07 09:33:13;;;;;;;17.67;7.07;;;;;;;15.64;22.91;101953.22;5058336;28;20041;-73
2022/03/07 09:35:40;;;;;;;10.82;5.45;;;;;;;15.00;23.76;101963.53;5057387;28;20049;-74
2022/03/07 09:38:06;;;;;;;14.52;5.72;;;;;;;15.03;23.43;101960.50;5054785;28;20128;-74
2022/03/07 09:40:33;;;;;;;12.35;5.57;;;;;;;14.71;23.54;101967.38;5050195;28;20544;-74
2022/03/07 09:43:00;;;;;;;12.57;6.00;;;;;;;15.26;22.51;101960.81;5074308;28;20036;-74
2022/03/07 09:45:26;;;;;;;18.38;6.15;;;;;;;14.40;23.77;101960.69;5075022;28;20135;-74
2022/03/07 09:47:53;;;;;;;8.82;5.28;;;;;;;15.70;22.34;101953.41;5065603;28;20041;-74
2022/03/07 09:50:20;;;;;;;12.20;6.30;;;;;;;15.29;22.25;101956.91;5057324;28;20040;-74
2022/03/07 09:52:47;;;;;;;10.82;6.05;;;;;;;15.49;22.38;101963.78;5075750;28;20455;-74
2022/03/07 09:55:16;;;;;;;12.38;7.55;;;;;;;15.17;22.82;101948.25;5068169;28;20099;-74
2022/03/07 09:57:45;;;;;;;14.65;5.65;;;;;;;14.58;22.99;101950.69;5055180;28;20041;-74
2022/03/07 10:00:13;;;;;;;10.13;5.40;;;;;;;16.10;21.38;101962.66;5043660;28;20098;-75
2022/03/07 10:02:39;;;;;;;11.75;5.20;;;;;;;14.40;22.68;101960.69;5053615;28;20073;-75
2022/03/07 10:05:06;;;;;;;15.63;5.38;;;;;;;14.48;23.19;101964.28;5055409;28;20049;-75
2022/03/07 10:07:44;;;;;;;8.27;4.80;;;;;;;16.01;21.54;101969.06;5052763;28;20071;-74
2022/03/07 10:10:11;;;;;;;9.77;5.90;;;;;;;14.87;22.83;101963.09;5053936;28;20516;-75
2022/03/07 10:12:45;;;;;;;11.07;6.00;;;;;;;14.00;23.85;101978.16;5054965;28;20102;-75
2022/03/07 10:15:14;;;;;;;14.20;5.80;;;;;;;15.57;22.63;101955.72;5036107;28;20061;-75
2022/03/07 10:17:47;;;;;;;9.93;5.68;;;;;;;14.23;23.88;101960.53;5054793;28;20514;-75
2022/03/07 10:20:15;;;;;;;12.80;5.82;;;;;;;14.88;23.08;101973.75;5055816;28;20041;-75
2022/03/07 10:22:47;;;;;;;11.20;5.47;;;;;;;14.98;23.17;101974.50;5072163;28;20106;-76
2022/03/07 10:25:14;;;;;;;11.50;5.97;;;;;;;15.19;22.70;101963.31;5073154;28;20516;-76
2022/03/07 10:27:45;;;;;;;11.38;5.40;;;;;;;16.09;21.97;101970.91;5073128;28;20052;-76
2022/03/07 10:30:14;;;;;;;11.60;6.40;;;;;;;16.78;21.37;101969.66;5073131;28;20067;-76
2022/03/07 10:32:42;;;;;;;9.57;5.97;;;;;;;16.62;21.62;101973.22;5071537;28;20140;-75
2022/03/07 10:35:19;;;;;;;9.45;5.68;;;;;;;15.77;22.65;101967.13;5074381;28;20067;-75
2022/03/07 10:37:46;;;;;;;8.95;5.90;;;;;;;14.86;23.56;101977.63;5072224;28;20069;-75
2022/03/07 10:40:21;;;;;;;12.18;6.10;;;;;;;14.76;22.87;101967.75;5072894;28;20131;-75
2022/03/07 10:42:50;;;;;;;10.48;5.80;;;;;;;14.96;23.48;101972.97;5072470;28;20234;-75
2022/03/07 10:45:16;;;;;;;14.90;5.97;;;;;;;15.26;22.76;101963.53;5073188;28;20072;-75
2022/03/07 10:47:43;;;;;;;9.48;5.47;;;;;;;14.43;23.76;101958.50;5071298;28;20459;-75
2022/03/07 10:50:09;;;;;;;13.38;6.00;;;;;;;16.23;21.60;101964.00;5072107;28;20037;-75
2022/03/07 10:52:41;;;;;;;10.57;6.30;;;;;;;16.07;22.01;101971.09;5052297;28;20065;-75
2022/03/07 10:55:10;;;;;;;17.17;6.32;;;;;;;15.62;22.17;101964.16;5063511;28;20071;-75
2022/03/07 10:57:40;;;;;;;12.48;6.22;;;;;;;14.70;23.83;101962.97;5053384;28;20095;-75
2022/03/07 11:00:16;;;;;;;10.15;5.40;;;;;;;15.40;22.16;101957.50;5042208;28;20072;-76
2022/03/07 11:02:44;;;;;;;9.25;5.05;;;;;;;15.28;22.36;101966.03;5036497;28;20048;-76
2022/03/07 11:05:13;;;;;;;11.57;5.72;;;;;;;15.52;22.18;101957.19;5041370;28;20072;-74
2022/03/07 11:07:42;;;;;;;10.80;6.03;;;;;;;15.06;22.73;101946.69;5045490;28;20041;-75
2022/03/07 11:10:12;;;;;;;12.68;5.90;;;;;;;15.33;22.55;101961.88;5043411;28;20052;-75
2022/03/07 11:12:39;;;;;;;11.23;5.38;;;;;;;15.49;21.91;101952.97;5043158;28;20069;-74
2022/03/07 11:15:10;;;;;;;9.07;5.20;;;;;;;15.38;21.55;101950.56;5036822;28;20136;-75
2022/03/07 11:17:40;;;;;;;7.80;4.35;;;;;;;16.10;20.96;101949.13;5023951;28;20121;-76
2022/03/07 11:20:08;;;;;;;9.65;5.47;;;;;;;15.20;22.20;101954.19;5052634;28;20044;-74
2022/03/07 11:22:35;;;;;;;13.32;6.10;;;;;;;15.69;21.87;101948.16;5052721;28;20123;-74
2022/03/07 11:25:04;;;;;;;14.35;6.72;;;;;;;14.57;23.15;101940.91;5043157;28;20139;-75
2022/03/07 11:27:34;;;;;;;11.55;5.65;;;;;;;15.85;21.74;101939.25;5053112;28;20443;-75